createdAt,value
2023-03-21T00:03:09.987Z,19.45
2023-03-21T00:08:14.206Z,26.08
2023-03-21T00:13:19.108Z,12.13
2023-03-21T00:18:24.092Z,22.13
2023-03-21T00:23:29.395Z,11.98
2023-03-21T00:28:32.330Z,42.83
2023-03-21T00:33:35.637Z,14.02
2023-03-21T00:38:41.494Z,8.80
2023-03-21T00:43:44.399Z,9.05
2023-03-21T00:48:47.262Z,18.52
2023-03-21T00:53:51.518Z,20.40
2023-03-21T00:58:54.797Z,9.20
2023-03-21T01:04:03.508Z,24.38
2023-03-21T01:09:12.806Z,13.27
2023-03-21T01:14:24.729Z,19.95
2023-03-21T01:19:48.302Z,22.20
2023-03-21T01:25:00.636Z,16.52
2023-03-21T01:30:20.283Z,17.50
2023-03-21T01:35:27.033Z,19.25
2023-03-21T01:40:32.924Z,12.43
2023-03-21T01:46:22.568Z,14.60
2023-03-21T01:52:11.507Z,17.27
2023-03-21T01:57:35.492Z,13.75
2023-03-21T02:02:58.111Z,18.05
2023-03-21T02:08:30.539Z,12.68
2023-03-21T02:13:50.205Z,10.07
2023-03-21T02:19:06.497Z,18.05
2023-03-21T02:25:01.405Z,17.63
2023-03-21T02:30:49.160Z,20.05
2023-03-21T02:41:25.374Z,15.50
2023-03-21T02:46:42.944Z,21.15
2023-03-21T02:51:53.081Z,25.10
2023-03-21T02:57:00.240Z,22.55
2023-03-21T03:02:04.025Z,19.45
2023-03-21T03:07:37.306Z,16.45
2023-03-21T03:13:00.465Z,18.33
2023-03-21T03:18:14.087Z,19.60
2023-03-21T03:23:26.994Z,9.73
2023-03-21T03:28:36.566Z,9.45
2023-03-21T03:33:51.758Z,14.95
2023-03-21T03:38:55.810Z,13.60
2023-03-21T03:44:03.140Z,10.43
2023-03-21T03:49:16.366Z,8.07
2023-03-21T03:54:24.622Z,9.40
2023-03-21T03:59:29.556Z,14.15
2023-03-21T04:05:05.893Z,13.20
2023-03-21T04:10:14.738Z,21.73
2023-03-21T04:15:20.416Z,14.43
2023-03-21T04:20:37.214Z,18.75
2023-03-21T04:25:55.581Z,15.02
2023-03-21T04:31:08.710Z,14.00
2023-03-21T04:36:27.568Z,13.15
2023-03-21T04:41:34.493Z,24.33
2023-03-21T04:46:41.486Z,19.98
2023-03-21T04:51:46.174Z,20.83
2023-03-21T04:56:55.449Z,21.90
2023-03-21T05:02:04.208Z,14.35
2023-03-21T05:07:09.134Z,21.38
2023-03-21T05:12:12.261Z,21.70
2023-03-21T05:17:24.889Z,18.02
2023-03-21T05:22:29.010Z,19.80
2023-03-21T05:27:35.763Z,16.08
2023-03-21T05:32:46.637Z,30.73
2023-03-21T05:37:50.742Z,18.83
2023-03-21T05:42:53.823Z,24.40
2023-03-21T05:48:00.871Z,20.58
2023-03-21T05:53:09.073Z,15.32
2023-03-21T05:58:12.573Z,24.70
2023-03-21T06:03:27.599Z,19.55
2023-03-21T06:08:43.128Z,17.23
2023-03-21T06:13:47.030Z,19.15
2023-03-21T06:18:53.639Z,14.00
2023-03-21T06:24:20.716Z,19.58
2023-03-21T06:29:26.164Z,30.88
2023-03-21T06:34:31.631Z,21.42
2023-03-21T06:39:34.682Z,25.15
2023-03-21T06:44:41.756Z,14.45
2023-03-21T06:49:51.897Z,21.55
2023-03-21T06:54:56.328Z,16.42
2023-03-21T07:00:03.957Z,19.33
2023-03-21T07:05:09.439Z,19.35
2023-03-21T07:10:14.678Z,21.58
2023-03-21T07:15:30.396Z,28.08
2023-03-21T07:20:38.098Z,23.85
2023-03-21T07:25:42.221Z,14.70
2023-03-21T07:30:46.885Z,16.00
2023-03-21T07:35:52.617Z,21.00
2023-03-21T07:40:55.582Z,18.10
2023-03-21T07:45:59.419Z,16.55
2023-03-21T07:51:06.751Z,18.13
2023-03-21T07:56:11.438Z,19.63
2023-03-21T08:01:15.653Z,16.92
2023-03-21T08:06:20.254Z,17.33
2023-03-21T08:11:23.764Z,16.95
2023-03-21T08:16:26.882Z,26.58
2023-03-21T08:21:32.195Z,22.48
2023-03-21T08:26:35.793Z,17.25
2023-03-21T08:31:38.695Z,18.80
2023-03-21T08:36:43.836Z,16.08
2023-03-21T08:41:46.652Z,13.32
2023-03-21T08:46:51.575Z,16.17
2023-03-21T08:51:58.006Z,11.82
2023-03-21T08:57:01.862Z,22.60
2023-03-21T09:02:05.537Z,14.38
2023-03-21T09:07:18.881Z,21.30
2023-03-21T09:12:21.916Z,27.60
2023-03-21T09:17:24.715Z,21.10
2023-03-21T09:22:35.870Z,17.35
2023-03-21T09:27:38.826Z,25.27
2023-03-21T09:32:42.034Z,18.00
2023-03-21T09:37:47.359Z,20.48
2023-03-21T09:42:59.922Z,21.17
2023-03-21T09:48:03.941Z,21.67
2023-03-21T09:53:14.823Z,18.75
2023-03-21T09:58:27.222Z,16.33
2023-03-21T10:03:35.049Z,15.10
2023-03-21T10:08:43.248Z,16.45
2023-03-21T10:13:52.108Z,15.70
2023-03-21T10:18:56.497Z,19.03
2023-03-21T10:24:01.865Z,13.00
2023-03-21T10:29:07.089Z,18.73
2023-03-21T10:34:17.237Z,19.90
2023-03-21T10:39:29.533Z,20.35
2023-03-21T10:44:34.244Z,17.08
2023-03-21T10:50:05.688Z,18.25
2023-03-21T10:55:20.340Z,14.35
2023-03-21T11:00:29.892Z,17.83
2023-03-21T11:05:38.451Z,18.85
2023-03-21T11:10:53.796Z,16.65
2023-03-21T11:15:58.540Z,15.15
2023-03-21T11:21:06.494Z,10.57
2023-03-21T11:26:13.545Z,10.85
2023-03-21T11:31:17.765Z,13.10
2023-03-21T11:36:39.075Z,14.00
2023-03-21T11:41:49.338Z,15.02
2023-03-21T11:46:58.476Z,20.20
2023-03-21T11:52:19.068Z,51.17
2023-03-21T11:57:33.054Z,30.77
2023-03-21T12:02:56.419Z,13.75
2023-03-21T12:08:07.368Z,21.15
2023-03-21T12:13:42.586Z,13.75
2023-03-21T12:19:02.805Z,16.20
2023-03-21T12:24:13.613Z,13.25
2023-03-21T12:29:49.801Z,33.97
2023-03-21T12:35:17.645Z,21.57
2023-03-21T12:40:38.298Z,19.00
2023-03-21T12:45:47.851Z,19.30
2023-03-21T12:50:53.653Z,25.42
2023-03-21T12:56:01.589Z,21.48
2023-03-21T13:01:08.599Z,22.40
2023-03-21T13:11:20.318Z,14.25
2023-03-21T13:16:29.064Z,16.05
2023-03-21T13:21:42.439Z,27.25
2023-03-21T13:26:50.661Z,14.50
2023-03-21T13:31:57.617Z,12.95
2023-03-21T13:37:02.269Z,14.95
2023-03-21T13:42:07.347Z,18.17
2023-03-21T13:47:32.630Z,24.52
2023-03-21T13:52:35.607Z,16.33
2023-03-21T13:57:41.092Z,22.77
2023-03-21T14:02:57.244Z,23.08
2023-03-21T14:08:15.269Z,13.85
2023-03-21T14:13:24.102Z,18.08
2023-03-21T14:18:52.873Z,22.45
2023-03-21T14:23:58.819Z,11.25
2023-03-21T14:29:07.138Z,18.75
2023-03-21T14:34:12.734Z,20.30
2023-03-21T14:39:18.244Z,14.75
2023-03-21T14:44:27.148Z,10.18
2023-03-21T14:49:40.452Z,34.95
2023-03-21T14:54:48.071Z,14.75
2023-03-21T14:59:55.158Z,15.65
2023-03-21T15:05:10.176Z,9.10
2023-03-21T15:10:20.188Z,12.73
2023-03-21T15:15:33.047Z,31.95
2023-03-21T15:20:42.431Z,13.15
2023-03-21T15:25:55.491Z,12.93
2023-03-21T15:31:05.441Z,11.70
2023-03-21T15:36:20.644Z,15.13
2023-03-21T15:41:29.240Z,12.63
2023-03-21T15:46:48.407Z,14.38
2023-03-21T15:51:57.358Z,16.52
2023-03-21T15:57:06.741Z,20.05
2023-03-21T16:02:18.286Z,28.13
2023-03-21T16:07:26.141Z,19.17
2023-03-21T16:12:30.526Z,13.25
2023-03-21T16:17:41.788Z,15.10
2023-03-21T16:22:45.984Z,27.17
2023-03-21T16:27:49.251Z,17.00
2023-03-21T16:32:53.082Z,15.20
2023-03-21T16:37:57.294Z,20.48
2023-03-21T16:43:00.915Z,15.75
2023-03-21T16:48:04.051Z,12.18
2023-03-21T16:53:08.372Z,11.43
2023-03-21T16:58:15.504Z,12.32
2023-03-21T17:03:19.385Z,38.37
2023-03-21T17:08:24.807Z,42.47
2023-03-21T17:13:28.616Z,16.85
2023-03-21T17:18:31.415Z,18.65
2023-03-21T17:23:36.314Z,33.47
2023-03-21T17:28:40.082Z,22.23
2023-03-21T17:33:43.343Z,31.75
2023-03-21T17:38:47.884Z,33.42
2023-03-21T17:43:52.977Z,22.08
2023-03-21T17:48:56.171Z,28.08
2023-03-21T17:54:00.707Z,149.68
2023-03-21T17:59:07.214Z,118.60
2023-03-21T18:04:14.175Z,86.73
2023-03-21T18:09:21.506Z,106.10
2023-03-21T18:14:28.481Z,64.72
2023-03-21T18:19:39.845Z,69.75
2023-03-21T18:24:44.989Z,52.90
2023-03-21T18:35:21.638Z,40.47
2023-03-21T18:40:25.991Z,43.30
2023-03-21T18:45:31.172Z,32.85
2023-03-21T18:50:33.997Z,27.75
2023-03-21T18:55:46.018Z,29.98
2023-03-21T19:00:51.613Z,27.77
2023-03-21T19:05:59.422Z,32.58
2023-03-21T19:11:06.714Z,40.15
2023-03-21T19:16:11.657Z,28.92
2023-03-21T19:21:14.670Z,25.10
2023-03-21T19:26:21.216Z,41.38
2023-03-21T19:31:24.774Z,58.13
2023-03-21T19:36:27.983Z,65.05
2023-03-21T19:41:32.289Z,82.40
2023-03-21T19:46:36.496Z,76.28
2023-03-21T19:51:39.415Z,118.07
2023-03-21T19:56:47.538Z,50.92
2023-03-21T20:01:56.399Z,39.28
2023-03-21T20:07:03.470Z,34.90
2023-03-21T20:12:09.544Z,44.13
2023-03-21T20:17:12.545Z,40.90
2023-03-21T20:22:24.875Z,36.17
2023-03-21T20:27:39.335Z,34.70
2023-03-21T20:32:46.148Z,32.20
2023-03-21T20:37:49.924Z,65.20
2023-03-21T20:42:56.236Z,47.30
2023-03-21T20:47:59.399Z,36.90
2023-03-21T20:53:07.549Z,40.95
2023-03-21T20:58:36.622Z,32.95
2023-03-21T21:03:39.434Z,30.13
2023-03-21T21:08:42.700Z,29.38
2023-03-21T21:13:47.343Z,32.42
2023-03-21T21:18:50.523Z,38.17
2023-03-21T21:23:55.482Z,30.23
2023-03-21T21:29:00.948Z,34.83
2023-03-21T21:34:05.651Z,27.02
2023-03-21T21:39:09.037Z,32.75
2023-03-21T21:44:13.723Z,27.60
2023-03-21T21:49:16.555Z,24.30
2023-03-21T21:54:19.429Z,22.75
2023-03-21T21:59:25.130Z,31.95
2023-03-21T22:04:28.612Z,28.73
2023-03-21T22:09:31.609Z,28.02
2023-03-21T22:14:36.363Z,27.52
2023-03-21T22:19:40.359Z,22.90
2023-03-21T22:24:44.370Z,27.42
2023-03-21T22:29:49.589Z,21.40
2023-03-21T22:34:52.512Z,24.48
2023-03-21T22:39:56.127Z,21.02
2023-03-21T22:45:01.586Z,27.33
2023-03-21T22:50:11.493Z,26.70
2023-03-21T22:55:14.399Z,18.98
2023-03-21T23:00:20.041Z,19.85
2023-03-21T23:05:26.611Z,17.52
2023-03-21T23:10:30.611Z,18.85
2023-03-21T23:15:34.965Z,21.20
2023-03-21T23:20:39.144Z,27.42
2023-03-21T23:25:43.176Z,23.35
2023-03-21T23:30:48.463Z,26.70
2023-03-21T23:35:51.643Z,22.15
2023-03-21T23:40:54.726Z,24.35
2023-03-21T23:45:59.812Z,19.10
2023-03-21T23:51:02.876Z,24.20
2023-03-21T23:56:12.055Z,21.08
